Time;durP1;ratioP1;P1;durP2;ratioP2;P2;SDS_P1;SDS_P2;PMS_P1;PMS_P2;Temp;Humidity;BMP_temperature;BMP_pressure;BME280_temperature;BME280_humidity;BME280_pressure;Samples;Min_cycle;Max_cycle;Signal;HPM_P1;HPM_P2
2021/07/23 00:02:18;;;;;;;5.20;2.30;;;;;;;;;;5075496;28;20457;-71
2021/07/23 00:04:46;;;;;;;7.60;3.00;;;;;;;;;;5075271;28;20465;-71
2021/07/23 00:07:15;;;;;;;3.80;2.37;;;;;;;;;;5075102;28;20748;-71
2021/07/23 00:09:45;;;;;;;6.73;2.60;;;;;;;;;;5077385;28;20452;-71
2021/07/23 00:12:13;;;;;;;7.03;2.43;;;;;;;;;;5079430;28;20490;-71
2021/07/23 00:14:42;;;;;;;4.37;2.63;;;;;;;;;;5078896;28;20456;-71
2021/07/23 00:17:10;;;;;;;7.67;2.77;;;;;;;;;;5078726;28;20542;-71
2021/07/23 00:19:38;;;;;;;4.17;2.50;;;;;;;;;;5079386;28;20452;-71
2021/07/23 00:22:05;;;;;;;6.83;2.80;;;;;;;;;;5078435;28;20509;-72
2021/07/23 00:24:35;;;;;;;9.67;2.60;;;;;;;;;;5079661;28;20747;-70
2021/07/23 00:27:04;;;;;;;3.67;2.40;;;;;;;;;;5078893;28;20452;-72
2021/07/23 00:29:32;;;;;;;14.97;3.40;;;;;;;;;;5079201;28;20845;-72
2021/07/23 00:32:02;;;;;;;10.63;2.90;;;;;;;;;;5078505;28;20476;-73
2021/07/23 00:34:30;;;;;;;3.40;2.40;;;;;;;;;;5078818;28;20453;-72
2021/07/23 00:36:57;;;;;;;4.87;2.70;;;;;;;;;;5078557;28;20472;-72
2021/07/23 00:39:25;;;;;;;5.00;2.90;;;;;;;;;;5078695;28;20459;-72
2021/07/23 00:41:57;;;;;;;4.77;2.77;;;;;;;;;;5078660;28;20518;-72
2021/07/23 00:44:25;;;;;;;7.33;3.33;;;;;;;;;;5078799;28;20543;-71
2021/07/23 00:46:55;;;;;;;6.40;3.50;;;;;;;;;;5078650;28;20545;-72
2021/07/23 00:49:25;;;;;;;4.57;3.80;;;;;;;;;;5078448;28;20498;-72
2021/07/23 00:51:53;;;;;;;4.53;2.77;;;;;;;;;;5078615;28;20484;-72
2021/07/23 00:54:21;;;;;;;4.53;2.47;;;;;;;;;;5078529;28;20872;-72
2021/07/23 00:56:49;;;;;;;3.20;2.63;;;;;;;;;;5078466;28;20821;-72
2021/07/23 00:59:21;;;;;;;4.90;2.50;;;;;;;;;;5078218;28;20453;-72
2021/07/23 01:01:49;;;;;;;4.07;2.77;;;;;;;;;;5077995;28;20857;-72
2021/07/23 01:04:17;;;;;;;9.43;3.30;;;;;;;;;;5078341;28;20448;-72
2021/07/23 01:06:45;;;;;;;6.93;3.10;;;;;;;;;;5078524;28;20506;-72
2021/07/23 01:09:12;;;;;;;3.40;2.70;;;;;;;;;;5078356;28;20857;-72
2021/07/23 01:11:40;;;;;;;5.00;2.80;;;;;;;;;;5078204;28;20488;-72
2021/07/23 01:14:08;;;;;;;5.23;2.40;;;;;;;;;;5078593;28;20448;-72
2021/07/23 01:16:38;;;;;;;5.60;3.23;;;;;;;;;;5077707;28;20445;-72
2021/07/23 01:19:07;;;;;;;5.37;3.37;;;;;;;;;;5078280;28;20449;-72
2021/07/23 01:21:35;;;;;;;3.50;2.43;;;;;;;;;;5076251;28;20560;-72
2021/07/23 01:24:05;;;;;;;6.03;3.50;;;;;;;;;;5077422;28;20502;-72
2021/07/23 01:26:33;;;;;;;7.33;3.50;;;;;;;;;;5077646;28;20470;-72
2021/07/23 01:29:01;;;;;;;4.33;3.50;;;;;;;;;;5077713;28;20512;-72
2021/07/23 01:31:29;;;;;;;6.43;3.40;;;;;;;;;;5077763;28;20456;-71
2021/07/23 01:33:57;;;;;;;5.33;3.97;;;;;;;;;;5077557;28;20468;-72
2021/07/23 01:36:26;;;;;;;3.57;2.30;;;;;;;;;;5077722;28;20454;-72
2021/07/23 01:38:56;;;;;;;7.07;3.03;;;;;;;;;;5077558;28;20463;-72
2021/07/23 01:41:25;;;;;;;7.40;2.80;;;;;;;;;;5077966;28;20452;-71
2021/07/23 01:43:53;;;;;;;3.70;3.10;;;;;;;;;;5077456;28;20546;-72
2021/07/23 01:46:20;;;;;;;5.80;3.07;;;;;;;;;;5077698;28;20506;-72
2021/07/23 01:48:49;;;;;;;4.03;2.37;;;;;;;;;;5076242;28;20551;-72
2021/07/23 01:51:18;;;;;;;5.20;2.90;;;;;;;;;;5077573;28;20484;-72
2021/07/23 01:53:49;;;;;;;2.90;2.50;;;;;;;;;;5077626;28;20927;-72
2021/07/23 01:56:16;;;;;;;4.17;3.50;;;;;;;;;;5076882;28;20506;-72
2021/07/23 01:58:45;;;;;;;3.43;2.87;;;;;;;;;;5077072;28;20884;-72
2021/07/23 02:01:14;;;;;;;5.00;2.80;;;;;;;;;;5077055;28;20456;-73
2021/07/23 02:03:41;;;;;;;4.23;3.13;;;;;;;;;;5077468;28;20452;-72
2021/07/23 02:06:09;;;;;;;3.70;2.97;;;;;;;;;;5077150;28;20437;-72
2021/07/23 02:08:39;;;;;;;4.93;2.50;;;;;;;;;;5077064;28;20525;-71
2021/07/23 02:11:07;;;;;;;8.10;3.03;;;;;;;;;;5077170;28;20787;-71
2021/07/23 02:13:35;;;;;;;3.70;3.00;;;;;;;;;;5077285;28;20488;-71
2021/07/23 02:16:07;;;;;;;6.83;3.37;;;;;;;;;;5076399;28;20488;-72
2021/07/23 02:18:34;;;;;;;4.23;2.93;;;;;;;;;;5077105;28;20475;-71
2021/07/23 02:21:06;;;;;;;4.33;2.80;;;;;;;;;;5076470;28;20457;-71
2021/07/23 02:23:36;;;;;;;3.60;3.00;;;;;;;;;;5076644;28;20453;-71
2021/07/23 02:26:04;;;;;;;4.20;3.37;;;;;;;;;;5076888;28;20455;-71
2021/07/23 02:28:32;;;;;;;4.20;3.13;;;;;;;;;;5076797;28;20456;-72
2021/07/23 02:30:59;;;;;;;8.13;3.63;;;;;;;;;;5076640;28;20746;-71
2021/07/23 02:33:29;;;;;;;5.07;3.60;;;;;;;;;;5076030;28;20525;-71
2021/07/23 02:35:56;;;;;;;4.40;3.20;;;;;;;;;;5076914;28;20492;-71
2021/07/23 02:38:24;;;;;;;5.77;3.37;;;;;;;;;;5077102;28;20814;-71
2021/07/23 02:40:54;;;;;;;5.13;3.10;;;;;;;;;;5076358;28;20528;-72
2021/07/23 02:43:23;;;;;;;4.40;2.90;;;;;;;;;;5069166;28;20464;-72
2021/07/23 02:45:53;;;;;;;7.43;3.53;;;;;;;;;;5076139;28;20544;-74
2021/07/23 02:48:25;;;;;;;5.10;2.73;;;;;;;;;;5075826;28;20543;-73
2021/07/23 02:50:59;;;;;;;9.50;4.00;;;;;;;;;;5075297;28;20893;-72
2021/07/23 02:53:30;;;;;;;6.17;3.70;;;;;;;;;;5072691;28;20764;-71
2021/07/23 02:55:58;;;;;;;3.97;2.70;;;;;;;;;;5076363;28;20444;-71
2021/07/23 02:58:26;;;;;;;5.60;2.90;;;;;;;;;;5075893;28;20468;-72
2021/07/23 03:00:54;;;;;;;5.33;3.50;;;;;;;;;;5076815;28;20747;-71
2021/07/23 03:03:22;;;;;;;5.93;3.40;;;;;;;;;;5076499;28;21096;-71
2021/07/23 03:05:50;;;;;;;10.43;3.30;;;;;;;;;;5075789;28;20452;-71
2021/07/23 03:08:19;;;;;;;4.50;3.17;;;;;;;;;;5076069;28;20460;-72
2021/07/23 03:10:47;;;;;;;5.60;3.10;;;;;;;;;;5076389;28;20546;-72
2021/07/23 03:13:14;;;;;;;7.23;3.60;;;;;;;;;;5076481;28;20480;-71
2021/07/23 03:15:42;;;;;;;4.20;3.30;;;;;;;;;;5076828;28;20460;-71
2021/07/23 03:18:11;;;;;;;4.80;3.20;;;;;;;;;;5075637;28;20459;-71
2021/07/23 03:20:39;;;;;;;4.97;3.80;;;;;;;;;;5076502;28;20461;-71
2021/07/23 03:23:07;;;;;;;5.03;3.50;;;;;;;;;;5075990;28;20549;-71
2021/07/23 03:25:36;;;;;;;6.47;3.60;;;;;;;;;;5082722;28;20453;-71
2021/07/23 03:28:04;;;;;;;3.80;3.27;;;;;;;;;;5093526;28;20467;-73
2021/07/23 03:30:33;;;;;;;4.83;3.80;;;;;;;;;;5089208;28;20457;-71
2021/07/23 03:33:02;;;;;;;5.43;3.30;;;;;;;;;;5075753;28;20506;-72
2021/07/23 03:35:30;;;;;;;5.20;3.67;;;;;;;;;;5075374;28;20466;-71
2021/07/23 03:38:00;;;;;;;4.57;3.40;;;;;;;;;;5061878;28;20537;-71
2021/07/23 03:40:29;;;;;;;4.17;3.40;;;;;;;;;;5075904;28;20770;-72
2021/07/23 03:43:00;;;;;;;4.43;3.47;;;;;;;;;;5056472;28;20489;-71
2021/07/23 03:45:28;;;;;;;9.97;3.77;;;;;;;;;;5067829;28;20510;-71
2021/07/23 03:47:56;;;;;;;5.20;3.80;;;;;;;;;;5079573;28;20453;-71
2021/07/23 03:50:23;;;;;;;3.77;3.00;;;;;;;;;;5079303;28;20444;-72
2021/07/23 03:52:51;;;;;;;5.30;3.73;;;;;;;;;;5079069;28;20476;-72
2021/07/23 03:55:23;;;;;;;4.60;3.33;;;;;;;;;;5078414;28;20454;-72
2021/07/23 03:57:54;;;;;;;4.10;3.43;;;;;;;;;;5067131;28;20441;-72
2021/07/23 04:00:24;;;;;;;5.40;3.37;;;;;;;;;;5079209;28;20495;-71
2021/07/23 04:02:53;;;;;;;3.73;2.80;;;;;;;;;;5079262;28;20460;-72
2021/07/23 04:05:22;;;;;;;5.23;3.30;;;;;;;;;;5079823;28;20551;-72
2021/07/23 04:07:50;;;;;;;6.07;3.70;;;;;;;;;;5079713;28;20460;-71
2021/07/23 04:10:18;;;;;;;4.70;3.37;;;;;;;;;;5079223;28;20817;-71
2021/07/23 04:12:46;;;;;;;7.93;3.80;;;;;;;;;;5070856;28;20950;-71
2021/07/23 04:15:14;;;;;;;7.80;3.57;;;;;;;;;;5064976;28;20547;-71
2021/07/23 04:17:43;;;;;;;4.90;3.77;;;;;;;;;;5078631;28;20457;-71
2021/07/23 04:20:11;;;;;;;6.60;3.77;;;;;;;;;;5078978;28;20511;-71
2021/07/23 04:22:39;;;;;;;6.10;3.60;;;;;;;;;;5068619;28;20850;-71
2021/07/23 04:25:08;;;;;;;6.03;3.07;;;;;;;;;;5068837;28;20511;-71
2021/07/23 04:27:35;;;;;;;6.60;3.00;;;;;;;;;;5058685;28;20461;-71
2021/07/23 04:30:04;;;;;;;5.57;3.80;;;;;;;;;;5059336;28;20523;-71
2021/07/23 04:32:31;;;;;;;6.97;4.07;;;;;;;;;;5059316;28;20514;-71
2021/07/23 04:35:01;;;;;;;5.40;3.40;;;;;;;;;;5058450;28;20522;-71
2021/07/23 04:37:30;;;;;;;7.63;4.80;;;;;;;;;;5058618;28;20504;-71
2021/07/23 04:39:57;;;;;;;5.67;3.67;;;;;;;;;;5058268;28;20453;-71
2021/07/23 04:42:25;;;;;;;5.43;3.53;;;;;;;;;;5058727;28;20469;-72
2021/07/23 04:44:53;;;;;;;6.60;3.50;;;;;;;;;;5059067;28;20448;-71
2021/07/23 04:47:21;;;;;;;4.47;2.97;;;;;;;;;;5059110;28;20468;-71
2021/07/23 04:49:48;;;;;;;5.47;4.30;;;;;;;;;;5058864;28;20449;-71
2021/07/23 04:52:18;;;;;;;4.33;3.27;;;;;;;;;;5058918;28;20461;-71
2021/07/23 04:54:46;;;;;;;6.33;3.90;;;;;;;;;;5058236;28;20438;-71
2021/07/23 04:57:17;;;;;;;8.73;4.20;;;;;;;;;;5070649;28;20467;-72
2021/07/23 04:59:45;;;;;;;4.40;3.80;;;;;;;;;;5078454;28;20451;-71
2021/07/23 05:02:13;;;;;;;6.97;4.03;;;;;;;;;;5078566;28;20525;-71
2021/07/23 05:04:41;;;;;;;6.60;3.57;;;;;;;;;;5078009;28;20480;-72
2021/07/23 05:07:09;;;;;;;6.27;3.73;;;;;;;;;;5078009;28;20514;-71
2021/07/23 05:09:41;;;;;;;4.20;3.20;;;;;;;;;;5077728;28;20472;-71
2021/07/23 05:12:09;;;;;;;6.93;4.27;;;;;;;;;;5076609;28;20550;-71
2021/07/23 05:14:37;;;;;;;7.10;4.00;;;;;;;;;;5078084;28;21061;-72
2021/07/23 05:17:05;;;;;;;4.77;3.93;;;;;;;;;;5078203;28;20916;-71
2021/07/23 05:19:33;;;;;;;6.77;5.07;;;;;;;;;;5078349;28;20783;-72
2021/07/23 05:22:01;;;;;;;4.90;3.43;;;;;;;;;;5077646;28;20467;-72
2021/07/23 05:24:31;;;;;;;9.40;5.03;;;;;;;;;;5077742;28;20452;-72
2021/07/23 05:27:01;;;;;;;7.73;5.20;;;;;;;;;;5076516;28;20467;-72
2021/07/23 05:29:29;;;;;;;9.47;4.60;;;;;;;;;;5077568;28;20484;-72
2021/07/23 05:31:56;;;;;;;6.90;4.80;;;;;;;;;;5090225;28;20544;-72
2021/07/23 05:34:24;;;;;;;7.10;5.03;;;;;;;;;;5097135;28;20518;-72
2021/07/23 05:36:57;;;;;;;11.27;5.70;;;;;;;;;;5097894;28;20467;-72
2021/07/23 05:39:26;;;;;;;9.33;5.77;;;;;;;;;;5097222;28;20712;-73
2021/07/23 05:41:53;;;;;;;8.80;4.90;;;;;;;;;;5097216;28;20562;-72
2021/07/23 05:44:23;;;;;;;6.80;4.37;;;;;;;;;;5085358;28;20469;-72
2021/07/23 05:46:54;;;;;;;7.83;5.70;;;;;;;;;;5058155;28;20461;-72
2021/07/23 05:49:22;;;;;;;7.70;4.67;;;;;;;;;;5074485;28;20823;-72
2021/07/23 05:51:50;;;;;;;7.17;5.00;;;;;;;;;;5076714;28;20456;-72
2021/07/23 05:54:17;;;;;;;7.30;6.07;;;;;;;;;;5076875;28;20512;-72
2021/07/23 05:56:45;;;;;;;11.80;5.23;;;;;;;;;;5076609;28;20852;-72
2021/07/23 05:59:13;;;;;;;9.13;6.63;;;;;;;;;;5076464;28;20752;-71
2021/07/23 06:01:42;;;;;;;9.30;6.20;;;;;;;;;;5075572;28;20514;-71
2021/07/23 06:04:10;;;;;;;5.93;5.30;;;;;;;;;;5075657;28;20880;-71
2021/07/23 06:06:39;;;;;;;8.67;6.27;;;;;;;;;;5075915;28;20790;-71
2021/07/23 06:09:06;;;;;;;9.67;5.70;;;;;;;;;;5076142;28;20827;-71
2021/07/23 06:11:34;;;;;;;11.67;5.60;;;;;;;;;;5075761;28;20510;-71
2021/07/23 06:14:02;;;;;;;10.73;6.10;;;;;;;;;;5075944;28;20488;-71
2021/07/23 06:16:30;;;;;;;8.50;5.93;;;;;;;;;;5072368;28;20467;-71
2021/07/23 06:19:00;;;;;;;9.33;6.47;;;;;;;;;;5069459;28;20452;-71
2021/07/23 06:21:28;;;;;;;8.80;5.80;;;;;;;;;;5072233;28;20549;-71
2021/07/23 06:23:59;;;;;;;10.33;5.57;;;;;;;;;;5071975;28;20560;-72
2021/07/23 06:26:29;;;;;;;6.90;5.97;;;;;;;;;;5055894;28;20458;-72
2021/07/23 06:28:57;;;;;;;8.37;5.37;;;;;;;;;;5058965;28;20456;-71
2021/07/23 06:31:25;;;;;;;8.43;5.33;;;;;;;;;;5055758;28;20786;-71
2021/07/23 06:33:54;;;;;;;7.20;5.80;;;;;;;;;;5061038;28;20487;-71
2021/07/23 06:36:35;;;;;;;7.20;5.40;;;;;;;;;;5063355;28;20449;-71
2021/07/23 06:39:03;;;;;;;8.30;6.27;;;;;;;;;;5058318;28;20939;-71
2021/07/23 06:41:30;;;;;;;8.07;5.30;;;;;;;;;;5055679;28;20503;-71
2021/07/23 06:43:59;;;;;;;7.77;6.17;;;;;;;;;;5060858;28;20505;-71
2021/07/23 06:46:27;;;;;;;11.20;6.43;;;;;;;;;;5069005;28;20541;-72
2021/07/23 06:48:55;;;;;;;11.07;4.93;;;;;;;;;;5067345;28;20461;-71
2021/07/23 06:51:23;;;;;;;9.00;5.73;;;;;;;;;;5074335;28;20449;-72
2021/07/23 06:53:53;;;;;;;11.60;7.10;;;;;;;;;;5071664;28;21011;-71
2021/07/23 06:56:20;;;;;;;8.80;6.30;;;;;;;;;;5075094;28;20751;-70
2021/07/23 06:58:48;;;;;;;6.53;4.80;;;;;;;;;;5074838;28;20537;-70
2021/07/23 07:01:16;;;;;;;9.17;5.63;;;;;;;;;;5074519;28;20943;-70
2021/07/23 07:03:44;;;;;;;14.73;6.73;;;;;;;;;;5075523;28;20522;-70
2021/07/23 07:06:12;;;;;;;7.60;5.27;;;;;;;;;;5075222;28;20460;-70
2021/07/23 07:08:40;;;;;;;7.83;6.00;;;;;;;;;;5075363;28;20969;-70
2021/07/23 07:11:09;;;;;;;8.07;5.20;;;;;;;;;;5074891;28;20468;-69
2021/07/23 07:13:40;;;;;;;12.13;6.27;;;;;;;;;;5074674;28;20542;-69
2021/07/23 07:16:11;;;;;;;10.30;6.63;;;;;;;;;;5073176;28;20526;-71
2021/07/23 07:18:38;;;;;;;12.50;4.67;;;;;;;;;;5066369;28;20621;-70
2021/07/23 07:21:07;;;;;;;8.23;5.40;;;;;;;;;;5074467;28;20822;-69
2021/07/23 07:23:35;;;;;;;12.23;5.73;;;;;;;;;;5060465;28;20442;-70
2021/07/23 07:28:48;;;;;;;8.57;5.13;;;;;;;;;;5069020;28;20505;-71
2021/07/23 07:31:16;;;;;;;7.10;4.27;;;;;;;;;;5068753;28;20444;-71
2021/07/23 07:33:44;;;;;;;6.40;4.57;;;;;;;;;;5073774;28;20480;-70
2021/07/23 07:36:17;;;;;;;6.07;4.83;;;;;;;;;;5074031;28;20468;-70
2021/07/23 07:38:44;;;;;;;8.33;5.30;;;;;;;;;;5073609;28;20524;-71
2021/07/23 07:41:13;;;;;;;8.57;5.40;;;;;;;;;;5069380;28;20822;-71
2021/07/23 07:43:42;;;;;;;9.70;5.27;;;;;;;;;;5064047;28;20780;-71
2021/07/23 07:46:11;;;;;;;9.07;6.53;;;;;;;;;;5063770;28;20471;-72
2021/07/23 07:48:39;;;;;;;8.43;6.70;;;;;;;;;;5073585;28;20542;-72
2021/07/23 07:51:10;;;;;;;11.40;6.73;;;;;;;;;;5072935;28;20460;-72
2021/07/23 07:53:38;;;;;;;12.30;7.40;;;;;;;;;;5072999;28;20924;-72
2021/07/23 07:56:07;;;;;;;7.20;5.70;;;;;;;;;;5071773;28;20457;-71
2021/07/23 07:58:36;;;;;;;7.70;6.30;;;;;;;;;;5073154;28;20865;-72
2021/07/23 08:01:07;;;;;;;7.63;5.97;;;;;;;;;;5073644;28;20916;-73
2021/07/23 08:03:37;;;;;;;10.70;4.37;;;;;;;;;;5073693;28;20456;-73
2021/07/23 08:06:07;;;;;;;6.53;5.10;;;;;;;;;;5073707;28;20456;-73
2021/07/23 08:08:35;;;;;;;7.27;4.40;;;;;;;;;;5073680;28;20452;-72
2021/07/23 08:11:03;;;;;;;4.67;2.97;;;;;;;;;;5073595;28;20476;-72
2021/07/23 08:13:35;;;;;;;4.80;2.73;;;;;;;;;;5053939;28;20556;-70
2021/07/23 08:16:04;;;;;;;8.70;3.13;;;;;;;;;;5072302;28;20457;-71
2021/07/23 08:18:32;;;;;;;4.40;2.57;;;;;;;;;;5065922;28;20556;-72
2021/07/23 08:21:03;;;;;;;4.70;3.50;;;;;;;;;;5053686;28;20444;-72
2021/07/23 08:23:32;;;;;;;6.07;2.90;;;;;;;;;;5053200;28;21033;-74
2021/07/23 08:25:59;;;;;;;3.80;2.10;;;;;;;;;;5053650;28;20532;-71
2021/07/23 08:28:28;;;;;;;3.97;3.27;;;;;;;;;;5057093;28;20544;-73
2021/07/23 08:30:56;;;;;;;4.17;3.23;;;;;;;;;;5059083;28;21945;-73
2021/07/23 08:33:25;;;;;;;4.17;3.47;;;;;;;;;;5058379;28;20488;-73
2021/07/23 08:35:56;;;;;;;4.03;3.33;;;;;;;;;;5064631;28;20568;-71
2021/07/23 08:38:26;;;;;;;6.07;3.80;;;;;;;;;;5068338;28;20453;-71
2021/07/23 08:41:03;;;;;;;7.50;3.10;;;;;;;;;;5062506;28;20438;-71
2021/07/23 08:43:35;;;;;;;5.67;3.50;;;;;;;;;;5069570;28;20494;-72
2021/07/23 08:46:04;;;;;;;9.73;4.00;;;;;;;;;;5082898;28;20481;-71
2021/07/23 08:48:34;;;;;;;7.63;4.53;;;;;;;;;;5071264;28;20453;-72
2021/07/23 08:51:02;;;;;;;5.90;4.40;;;;;;;;;;5066408;28;20460;-73
2021/07/23 08:53:33;;;;;;;5.53;3.80;;;;;;;;;;5077739;28;20487;-72
2021/07/23 08:56:15;;;;;;;5.13;2.97;;;;;;;;;;5074608;28;20465;-71
2021/07/23 08:58:47;;;;;;;5.07;3.10;;;;;;;;;;5068304;28;20448;-70
2021/07/23 09:01:16;;;;;;;6.60;4.50;;;;;;;;;;5073228;28;20463;-71
2021/07/23 09:03:55;;;;;;;5.80;2.93;;;;;;;;;;5061292;28;20459;-71
2021/07/23 09:06:24;;;;;;;5.50;3.40;;;;;;;;;;5077979;28;20627;-71
2021/07/23 09:08:54;;;;;;;6.03;3.43;;;;;;;;;;5063072;28;20448;-72
2021/07/23 09:11:28;;;;;;;4.57;3.50;;;;;;;;;;5072426;28;20450;-71
2021/07/23 09:14:12;;;;;;;4.87;3.23;;;;;;;;;;5064823;28;20464;-71
2021/07/23 09:19:26;;;;;;;5.13;3.27;;;;;;;;;;5073827;28;20487;-72
2021/07/23 09:22:21;;;;;;;4.80;3.17;;;;;;;;;;5079061;28;20484;-71
2021/07/23 09:24:56;;;;;;;3.50;2.57;;;;;;;;;;5061676;28;20464;-71
2021/07/23 09:27:37;;;;;;;4.93;2.53;;;;;;;;;;5068146;28;20910;-71
2021/07/23 09:30:10;;;;;;;5.47;3.20;;;;;;;;;;5077612;28;20464;-71
2021/07/23 09:32:43;;;;;;;6.30;3.63;;;;;;;;;;5079032;28;20453;-70
2021/07/23 09:35:12;;;;;;;5.77;3.20;;;;;;;;;;5083822;28;20503;-70
2021/07/23 09:37:57;;;;;;;6.63;3.80;;;;;;;;;;5077100;28;20456;-70
2021/07/23 09:40:42;;;;;;;6.73;3.90;;;;;;;;;;5076546;28;20474;-71
2021/07/23 09:43:11;;;;;;;3.70;3.00;;;;;;;;;;5075832;28;20534;-69
2021/07/23 09:45:39;;;;;;;5.73;3.20;;;;;;;;;;5076029;28;20453;-71
2021/07/23 09:48:10;;;;;;;5.63;3.40;;;;;;;;;;5075006;28;20448;-71
2021/07/23 09:50:43;;;;;;;6.10;4.00;;;;;;;;;;5075611;28;21024;-71
2021/07/23 09:53:12;;;;;;;5.03;3.67;;;;;;;;;;5075729;28;20471;-71
2021/07/23 09:55:55;;;;;;;8.60;3.87;;;;;;;;;;5075394;28;20492;-72
2021/07/23 09:58:25;;;;;;;7.83;4.03;;;;;;;;;;5075911;28;20474;-72
2021/07/23 10:01:01;;;;;;;10.33;3.93;;;;;;;;;;5075242;28;20488;-71
2021/07/23 10:03:32;;;;;;;6.80;4.10;;;;;;;;;;5075678;28;20939;-73
2021/07/23 10:06:01;;;;;;;6.13;4.37;;;;;;;;;;5073822;28;20461;-72
2021/07/23 10:08:32;;;;;;;6.30;4.57;;;;;;;;;;5075418;28;20448;-73
2021/07/23 10:11:02;;;;;;;6.93;3.77;;;;;;;;;;5077432;28;20464;-72
2021/07/23 10:13:32;;;;;;;7.33;4.83;;;;;;;;;;5075780;28;20461;-71
2021/07/23 10:16:04;;;;;;;6.10;4.50;;;;;;;;;;5078324;28;20480;-72
2021/07/23 10:18:35;;;;;;;5.93;4.30;;;;;;;;;;5078929;28;20474;-72
2021/07/23 10:21:08;;;;;;;6.30;4.80;;;;;;;;;;5077724;28;20751;-72
2021/07/23 10:23:38;;;;;;;6.87;4.90;;;;;;;;;;5078000;28;20449;-72
2021/07/23 10:26:07;;;;;;;6.37;5.07;;;;;;;;;;5076717;28;20467;-72
2021/07/23 10:29:08;;;;;;;7.13;4.93;;;;;;;;;;5087714;28;20538;-73
2021/07/23 10:31:52;;;;;;;7.17;5.50;;;;;;;;;;5004471;28;20519;-72
2021/07/23 10:34:44;;;;;;;5.70;4.43;;;;;;;;;;5059792;28;20514;-72
2021/07/23 10:37:12;;;;;;;5.13;3.63;;;;;;;;;;5067384;28;20740;-71
2021/07/23 10:39:40;;;;;;;10.77;4.37;;;;;;;;;;5076311;28;20777;-71
2021/07/23 10:42:22;;;;;;;4.70;3.37;;;;;;;;;;5075555;28;20575;-72
2021/07/23 10:44:58;;;;;;;4.60;3.73;;;;;;;;;;5071357;28;20464;-71
2021/07/23 10:47:36;;;;;;;4.50;3.40;;;;;;;;;;5094337;28;20789;-71
2021/07/23 10:50:05;;;;;;;3.83;2.90;;;;;;;;;;5079018;28;20857;-70
2021/07/23 10:52:37;;;;;;;4.30;3.30;;;;;;;;;;5072491;28;20888;-70
2021/07/23 10:55:16;;;;;;;4.60;3.63;;;;;;;;;;5075034;28;20492;-71
2021/07/23 10:57:44;;;;;;;5.60;3.20;;;;;;;;;;5058296;28;20838;-70
2021/07/23 11:00:14;;;;;;;5.40;4.10;;;;;;;;;;5055495;28;20741;-71
2021/07/23 11:02:43;;;;;;;6.37;5.20;;;;;;;;;;5069082;28;20460;-73
2021/07/23 11:05:11;;;;;;;7.10;4.73;;;;;;;;;;5074776;28;20459;-70
2021/07/23 11:07:39;;;;;;;6.43;5.00;;;;;;;;;;5075578;28;20472;-71
2021/07/23 11:10:09;;;;;;;6.27;4.60;;;;;;;;;;5056902;28;20477;-71
2021/07/23 11:12:40;;;;;;;14.57;4.17;;;;;;;;;;5076000;28;20456;-71
2021/07/23 11:15:16;;;;;;;8.40;5.93;;;;;;;;;;5075215;28;21871;-71
2021/07/23 11:17:56;;;;;;;6.20;3.90;;;;;;;;;;5077306;28;20441;-71
2021/07/23 11:20:27;;;;;;;5.43;3.40;;;;;;;;;;5069622;28;20445;-71
2021/07/23 11:22:55;;;;;;;5.10;3.47;;;;;;;;;;5076402;28;20448;-71
2021/07/23 11:25:23;;;;;;;3.80;2.77;;;;;;;;;;5079428;28;20445;-70
2021/07/23 11:27:55;;;;;;;4.20;3.40;;;;;;;;;;5075715;28;20452;-71
2021/07/23 11:30:25;;;;;;;8.30;4.57;;;;;;;;;;5075400;28;20449;-71
2021/07/23 11:32:57;;;;;;;6.90;3.10;;;;;;;;;;5061975;28;20461;-71
2021/07/23 11:35:27;;;;;;;5.40;2.83;;;;;;;;;;5056788;28;20576;-72
2021/07/23 11:37:56;;;;;;;4.40;3.20;;;;;;;;;;5075055;28;20444;-70
2021/07/23 11:40:26;;;;;;;5.47;3.23;;;;;;;;;;5077018;28;20491;-71
2021/07/23 11:42:56;;;;;;;3.87;3.17;;;;;;;;;;5071412;28;20556;-70
2021/07/23 11:45:24;;;;;;;4.90;2.90;;;;;;;;;;5070841;28;20494;-71
2021/07/23 11:47:56;;;;;;;5.83;2.80;;;;;;;;;;5069047;28;20521;-71
2021/07/23 11:50:27;;;;;;;6.43;3.70;;;;;;;;;;5056129;28;20504;-70
2021/07/23 11:53:01;;;;;;;5.50;2.90;;;;;;;;;;5071657;28;20444;-71
2021/07/23 11:55:40;;;;;;;3.63;2.27;;;;;;;;;;5074507;28;20485;-70
2021/07/23 11:58:11;;;;;;;4.70;3.97;;;;;;;;;;5074835;28;20448;-73
2021/07/23 12:00:38;;;;;;;7.30;3.00;;;;;;;;;;5073747;28;20460;-72
2021/07/23 12:03:16;;;;;;;3.73;2.30;;;;;;;;;;5073191;28;20464;-73
2021/07/23 12:05:47;;;;;;;5.03;2.70;;;;;;;;;;5062756;28;20912;-72
2021/07/23 12:08:16;;;;;;;5.67;3.00;;;;;;;;;;5077545;28;20448;-72
2021/07/23 12:10:44;;;;;;;4.53;2.60;;;;;;;;;;5077891;28;20756;-72
2021/07/23 12:13:12;;;;;;;4.17;2.70;;;;;;;;;;5077011;28;20817;-72
2021/07/23 12:15:42;;;;;;;4.87;2.43;;;;;;;;;;5079197;28;20475;-73
2021/07/23 12:18:11;;;;;;;4.10;2.43;;;;;;;;;;5075885;28;20769;-73
2021/07/23 12:20:40;;;;;;;5.90;3.07;;;;;;;;;;5075287;28;20440;-74
2021/07/23 12:23:10;;;;;;;4.03;2.20;;;;;;;;;;5076506;28;20469;-73
2021/07/23 12:25:53;;;;;;;3.10;2.17;;;;;;;;;;5077734;28;20551;-74
2021/07/23 12:28:22;;;;;;;3.63;2.70;;;;;;;;;;5074077;28;20471;-73
2021/07/23 12:30:50;;;;;;;4.20;2.50;;;;;;;;;;5076114;28;20934;-72
2021/07/23 12:33:20;;;;;;;5.50;2.97;;;;;;;;;;5070092;28;20794;-73
2021/07/23 12:38:33;;;;;;;6.93;3.57;;;;;;;;;;5070655;28;20475;-73
2021/07/23 12:41:02;;;;;;;4.80;3.60;;;;;;;;;;5078365;28;20459;-70
2021/07/23 12:43:35;;;;;;;5.77;3.90;;;;;;;;;;5079556;28;20484;-73
2021/07/23 12:46:05;;;;;;;3.70;2.70;;;;;;;;;;5075384;28;20445;-72
2021/07/23 12:48:44;;;;;;;4.50;3.40;;;;;;;;;;5076378;28;20462;-73
2021/07/23 12:51:16;;;;;;;5.30;3.23;;;;;;;;;;5067681;28;20708;-72
2021/07/23 12:54:06;;;;;;;6.00;3.77;;;;;;;;;;5067034;28;20602;-73
2021/07/23 12:56:57;;;;;;;8.40;4.20;;;;;;;;;;5074202;28;20585;-73
2021/07/23 12:59:29;;;;;;;5.20;3.13;;;;;;;;;;5084200;28;20468;-72
2021/07/23 13:02:07;;;;;;;5.53;3.70;;;;;;;;;;5077952;28;20456;-72
2021/07/23 13:04:38;;;;;;;5.37;3.43;;;;;;;;;;5076819;28;20884;-73
2021/07/23 13:07:09;;;;;;;5.07;3.87;;;;;;;;;;5066668;28;20471;-72
2021/07/23 13:09:45;;;;;;;7.03;4.03;;;;;;;;;;5074270;28;20551;-72
2021/07/23 13:12:13;;;;;;;5.30;4.30;;;;;;;;;;5076206;28;20456;-72
2021/07/23 13:14:41;;;;;;;4.73;4.13;;;;;;;;;;5076876;28;20877;-72
2021/07/23 13:17:20;;;;;;;6.50;5.07;;;;;;;;;;5073804;28;20481;-74
2021/07/23 13:19:49;;;;;;;7.53;5.60;;;;;;;;;;5068306;28;20835;-72
2021/07/23 13:22:20;;;;;;;7.00;5.23;;;;;;;;;;5078497;28;20520;-71
2021/07/23 13:24:50;;;;;;;8.20;5.83;;;;;;;;;;5069361;28;20460;-72
2021/07/23 13:27:19;;;;;;;7.17;5.63;;;;;;;;;;5077829;28;20540;-72
2021/07/23 13:29:47;;;;;;;7.77;6.97;;;;;;;;;;5075753;28;20465;-72
2021/07/23 13:32:19;;;;;;;6.47;5.37;;;;;;;;;;5077108;28;20445;-72
2021/07/23 13:34:47;;;;;;;7.80;6.13;;;;;;;;;;5076942;28;20479;-72
2021/07/23 13:37:23;;;;;;;6.77;5.90;;;;;;;;;;5076948;28;20509;-73
2021/07/23 13:39:55;;;;;;;4.23;3.60;;;;;;;;;;5075716;28;20737;-72
2021/07/23 13:42:26;;;;;;;7.87;5.27;;;;;;;;;;5075719;28;20452;-72
2021/07/23 13:44:55;;;;;;;8.03;4.90;;;;;;;;;;5077327;28;20457;-73
2021/07/23 13:47:26;;;;;;;5.40;4.47;;;;;;;;;;5075471;28;20544;-72
2021/07/23 13:49:55;;;;;;;7.00;5.27;;;;;;;;;;5075394;28;20453;-72
2021/07/23 13:52:23;;;;;;;7.00;4.30;;;;;;;;;;5072587;28;20714;-72
2021/07/23 13:58:19;;;;;;;4.17;3.50;;;;;;;;;;5077156;28;20531;-70
2021/07/23 14:00:49;;;;;;;5.97;4.17;;;;;;;;;;5075497;28;20471;-73
2021/07/23 14:03:20;;;;;;;8.13;3.60;;;;;;;;;;5074077;28;20479;-73
2021/07/23 14:05:49;;;;;;;4.80;3.27;;;;;;;;;;5078869;28;20452;-73
2021/07/23 14:08:17;;;;;;;8.23;3.60;;;;;;;;;;5073918;28;20449;-73
2021/07/23 14:10:51;;;;;;;5.67;3.50;;;;;;;;;;5076742;28;20551;-72
2021/07/23 14:13:26;;;;;;;5.07;3.17;;;;;;;;;;5071689;28;20464;-73
2021/07/23 14:16:07;;;;;;;4.50;2.53;;;;;;;;;;5074537;28;20494;-72
2021/07/23 14:18:35;;;;;;;4.20;3.40;;;;;;;;;;5071108;28;20453;-72
2021/07/23 14:21:04;;;;;;;4.57;3.37;;;;;;;;;;5070939;28;20449;-72
2021/07/23 14:23:33;;;;;;;3.23;2.50;;;;;;;;;;5072327;28;20479;-72
2021/07/23 14:26:02;;;;;;;7.80;3.47;;;;;;;;;;5072648;28;20445;-72
2021/07/23 14:28:35;;;;;;;5.37;3.50;;;;;;;;;;5071407;28;20452;-72
2021/07/23 14:31:04;;;;;;;8.07;3.10;;;;;;;;;;5074671;28;20471;-73
2021/07/23 14:33:32;;;;;;;3.17;2.40;;;;;;;;;;5071860;28;21136;-72
2021/07/23 14:36:02;;;;;;;3.83;2.60;;;;;;;;;;5073591;28;21016;-73
2021/07/23 14:38:31;;;;;;;4.23;3.10;;;;;;;;;;5074373;28;20541;-73
2021/07/23 14:41:00;;;;;;;7.03;3.33;;;;;;;;;;5072729;28;20471;-72
2021/07/23 14:43:29;;;;;;;3.10;2.47;;;;;;;;;;5069775;28;20530;-73
2021/07/23 14:45:59;;;;;;;6.80;3.13;;;;;;;;;;5075315;28;20453;-72
2021/07/23 14:48:29;;;;;;;5.40;3.10;;;;;;;;;;5069696;28;20444;-72
2021/07/23 14:51:04;;;;;;;6.77;3.53;;;;;;;;;;5074063;28;20456;-72
2021/07/23 14:53:34;;;;;;;4.33;3.57;;;;;;;;;;5074852;28;20459;-72
2021/07/23 14:56:04;;;;;;;5.20;3.23;;;;;;;;;;5068650;28;20476;-72
2021/07/23 14:58:32;;;;;;;6.33;3.40;;;;;;;;;;5064749;28;20497;-72
2021/07/23 15:01:05;;;;;;;8.47;3.03;;;;;;;;;;5072672;28;20918;-73
2021/07/23 15:03:34;;;;;;;7.23;4.73;;;;;;;;;;5066238;28;20460;-72
2021/07/23 15:06:04;;;;;;;5.77;3.20;;;;;;;;;;5072351;28;20488;-72
2021/07/23 15:08:34;;;;;;;5.50;3.10;;;;;;;;;;5067127;28;20484;-72
2021/07/23 15:11:04;;;;;;;5.07;3.37;;;;;;;;;;5072044;28;20449;-72
2021/07/23 15:13:35;;;;;;;4.70;3.23;;;;;;;;;;5068582;28;20457;-72